createdAt,value
2018-01-27T00:00:18.805Z,81.25
2018-01-27T00:01:20.628Z,80.87
2018-01-27T00:02:22.423Z,81.25
2018-01-27T00:03:24.280Z,81.25
2018-01-27T00:04:26.757Z,81.73
2018-01-27T00:05:28.626Z,81.82
2018-01-27T00:06:42.741Z,82.10
2018-01-27T00:07:45.575Z,81.92
2018-01-27T00:08:48.040Z,82.01
2018-01-27T00:09:49.896Z,81.82
2018-01-27T00:10:51.688Z,81.92
2018-01-27T00:11:53.498Z,81.63
2018-01-27T00:12:55.355Z,81.63
2018-01-27T00:13:57.202Z,81.82
2018-01-27T00:14:59.061Z,81.92
2018-01-27T00:16:13.178Z,81.92
2018-01-27T00:17:15.039Z,81.63
2018-01-27T00:18:16.893Z,81.92
2018-01-27T00:19:18.755Z,81.73
2018-01-27T00:20:20.570Z,82.10
2018-01-27T00:21:22.382Z,81.82
2018-01-27T00:22:24.243Z,82.10
2018-01-27T00:23:26.134Z,81.63
2018-01-27T00:24:28.010Z,81.92
2018-01-27T00:25:42.159Z,81.82
2018-01-27T00:26:44.014Z,81.63
2018-01-27T00:27:45.892Z,82.49
2018-01-27T00:28:47.769Z,81.92
2018-01-27T00:29:49.564Z,81.73
2018-01-27T00:30:51.375Z,81.73
2018-01-27T00:31:53.229Z,81.44
2018-01-27T00:32:55.090Z,81.54
2018-01-27T00:33:56.947Z,81.44
2018-01-27T00:35:11.063Z,81.44
2018-01-27T00:36:12.919Z,81.54
2018-01-27T00:37:14.783Z,81.44
2018-01-27T00:38:16.641Z,81.44
2018-01-27T00:39:18.408Z,81.92
2018-01-27T00:40:20.220Z,81.92
2018-01-27T00:41:22.079Z,82.01
2018-01-27T00:42:23.941Z,81.82
2018-01-27T00:43:25.811Z,81.63
2018-01-27T00:44:39.930Z,81.82
2018-01-27T00:45:41.792Z,81.73
2018-01-27T00:46:43.651Z,82.10
2018-01-27T00:47:45.505Z,81.92
2018-01-27T00:48:47.302Z,82.39
2018-01-27T00:49:49.092Z,81.82
2018-01-27T00:50:50.952Z,82.49
2018-01-27T00:51:52.832Z,82.29
2018-01-27T00:52:54.705Z,82.49
2018-01-27T00:54:08.827Z,82.10
2018-01-27T00:55:10.687Z,82.10
2018-01-27T00:56:12.565Z,82.29
2018-01-27T00:57:14.421Z,82.39
2018-01-27T00:58:16.229Z,82.39
2018-01-27T00:59:18.025Z,82.20
2018-01-27T01:00:19.879Z,82.29
2018-01-27T01:01:21.739Z,82.68
2018-01-27T01:02:23.613Z,82.77
2018-01-27T01:03:37.749Z,82.68
2018-01-27T01:04:39.621Z,82.49
2018-01-27T01:05:41.485Z,82.49
2018-01-27T01:06:43.368Z,82.68
2018-01-27T01:07:45.179Z,82.68
2018-01-27T01:08:46.991Z,82.58
2018-01-27T01:09:48.851Z,83.34
2018-01-27T01:10:50.730Z,83.15
2018-01-27T01:11:52.585Z,83.06
2018-01-27T01:13:06.725Z,83.06
2018-01-27T01:14:08.586Z,83.06
2018-01-27T01:15:10.441Z,83.62
2018-01-27T01:16:12.300Z,83.44
2018-01-27T01:17:14.096Z,83.25
2018-01-27T01:18:15.907Z,83.44
2018-01-27T01:19:17.789Z,83.62
2018-01-27T01:20:19.660Z,83.82
2018-01-27T01:21:21.517Z,83.72
2018-01-27T01:22:35.637Z,83.72
2018-01-27T01:23:37.493Z,83.72
2018-01-27T01:24:39.354Z,83.44
2018-01-27T01:25:41.220Z,83.53
2018-01-27T01:26:43.025Z,83.62
2018-01-27T01:27:44.820Z,83.53
2018-01-27T01:28:46.674Z,84.20
2018-01-27T01:29:48.532Z,84.01
2018-01-27T01:30:50.407Z,84.01
2018-01-27T01:32:04.529Z,83.82
2018-01-27T01:33:06.386Z,84.01
2018-01-27T01:34:08.244Z,84.39
2018-01-27T01:35:10.101Z,84.01
2018-01-27T01:36:11.905Z,84.01
2018-01-27T01:37:13.706Z,83.91
2018-01-27T01:38:15.584Z,83.82
2018-01-27T01:39:17.437Z,83.82
2018-01-27T01:40:19.299Z,84.39
2018-01-27T01:41:33.420Z,84.10
2018-01-27T01:42:35.299Z,84.10
2018-01-27T01:43:37.172Z,84.39
2018-01-27T01:44:39.032Z,84.20
2018-01-27T01:45:40.820Z,84.16
2018-01-27T01:46:42.615Z,84.58
2018-01-27T01:47:44.490Z,84.48
2018-01-27T01:48:46.348Z,84.58
2018-01-27T01:49:48.224Z,84.91
2018-01-27T01:51:02.421Z,84.95
2018-01-27T01:52:04.287Z,84.72
2018-01-27T01:53:06.144Z,84.91
2018-01-27T01:54:08.004Z,84.34
2018-01-27T01:55:09.791Z,84.82
2018-01-27T01:56:11.585Z,84.72
2018-01-27T01:57:13.440Z,85.01
2018-01-27T01:58:15.299Z,85.39
2018-01-27T01:59:17.174Z,85.11
2018-01-27T02:00:31.345Z,84.72
2018-01-27T02:01:33.222Z,84.44
2018-01-27T02:02:35.099Z,84.48
2018-01-27T02:03:36.957Z,85.01
2018-01-27T02:04:46.035Z,84.86
2018-01-27T02:05:47.825Z,84.53
2018-01-27T02:06:49.708Z,84.48
2018-01-27T02:07:51.581Z,84.44
2018-01-27T02:08:53.445Z,84.72
2018-01-27T02:10:07.589Z,84.72
2018-01-27T02:11:09.466Z,84.86
2018-01-27T02:12:11.323Z,84.72
2018-01-27T02:13:13.179Z,85.39
2018-01-27T02:14:14.968Z,85.20
2018-01-27T02:15:16.762Z,85.20
2018-01-27T02:16:18.625Z,85.01
2018-01-27T02:17:20.505Z,85.20
2018-01-27T02:18:22.362Z,85.11
2018-01-27T02:19:36.487Z,85.15
2018-01-27T02:20:38.349Z,85.11
2018-01-27T02:21:40.226Z,85.30
2018-01-27T02:22:42.086Z,85.30
2018-01-27T02:23:43.899Z,85.30
2018-01-27T02:24:45.698Z,85.30
2018-01-27T02:25:47.578Z,85.20
2018-01-27T02:26:49.454Z,85.20
2018-01-27T02:27:51.314Z,85.34
2018-01-27T02:29:05.459Z,85.34
2018-01-27T02:30:07.334Z,85.24
2018-01-27T02:31:09.193Z,85.20
2018-01-27T02:32:11.053Z,85.43
2018-01-27T02:33:12.847Z,85.01
2018-01-27T02:34:14.635Z,85.01
2018-01-27T02:35:16.498Z,85.01
2018-01-27T02:36:18.355Z,85.01
2018-01-27T02:37:20.230Z,85.34
2018-01-27T02:38:34.357Z,85.11
2018-01-27T02:39:36.216Z,85.20
2018-01-27T02:40:38.080Z,85.01
2018-01-27T02:41:39.955Z,85.49
2018-01-27T02:42:41.775Z,85.77
2018-01-27T02:43:43.585Z,85.30
2018-01-27T02:44:45.458Z,85.86
2018-01-27T02:45:47.324Z,85.77
2018-01-27T02:46:49.201Z,86.05
2018-01-27T02:48:03.388Z,85.96
2018-01-27T02:49:05.249Z,86.53
2018-01-27T02:50:07.105Z,86.82
2018-01-27T02:51:08.980Z,86.77
2018-01-27T02:52:10.777Z,87.10
2018-01-27T02:53:12.579Z,86.58
2018-01-27T02:54:14.439Z,86.96
2018-01-27T02:55:16.297Z,87.15
2018-01-27T02:56:18.161Z,87.62
2018-01-27T02:57:32.287Z,87.43
2018-01-27T02:58:34.162Z,88.10
2018-01-27T02:59:36.026Z,87.82
2018-01-27T03:00:37.909Z,88.29
2018-01-27T03:01:39.717Z,88.48
2018-01-27T03:02:41.511Z,88.76
2018-01-27T03:03:43.364Z,88.57
2018-01-27T03:04:45.230Z,88.29
2018-01-27T03:05:47.101Z,88.43
2018-01-27T03:07:01.228Z,87.57
2018-01-27T03:08:03.086Z,87.57
2018-01-27T03:09:04.947Z,87.48
2018-01-27T03:10:06.802Z,87.38
2018-01-27T03:11:08.593Z,86.91
2018-01-27T03:12:10.387Z,86.82
2018-01-27T03:13:12.255Z,86.53
2018-01-27T03:14:14.127Z,86.72
2018-01-27T03:15:15.982Z,86.72
2018-01-27T03:16:30.165Z,86.53
2018-01-27T03:17:32.051Z,86.82
2018-01-27T03:18:33.896Z,86.72
2018-01-27T03:19:35.759Z,86.53
2018-01-27T03:20:37.569Z,86.43
2018-01-27T03:21:39.377Z,86.34
2018-01-27T03:22:41.236Z,86.15
2018-01-27T03:23:43.096Z,86.43
2018-01-27T03:24:44.957Z,86.05
2018-01-27T03:25:59.154Z,85.96
2018-01-27T03:27:01.089Z,85.58
2018-01-27T03:28:02.906Z,85.68
2018-01-27T03:29:04.781Z,85.68
2018-01-27T03:30:06.576Z,85.58
2018-01-27T03:31:08.366Z,86.05
2018-01-27T03:32:10.218Z,85.86
2018-01-27T03:33:12.119Z,85.96
2018-01-27T03:34:13.952Z,85.86
2018-01-27T03:35:28.077Z,86.43
2018-01-27T03:36:29.948Z,86.72
2018-01-27T03:37:31.813Z,86.72
2018-01-27T03:38:33.695Z,86.91
2018-01-27T03:39:35.488Z,86.63
2018-01-27T03:40:37.300Z,86.82
2018-01-27T03:41:39.179Z,86.82
2018-01-27T03:42:41.051Z,87.10
2018-01-27T03:43:42.920Z,87.10
2018-01-27T03:44:57.104Z,86.34
2018-01-27T03:45:58.960Z,86.43
2018-01-27T03:47:00.819Z,86.43
2018-01-27T03:48:02.681Z,86.24
2018-01-27T03:49:04.495Z,86.53
2018-01-27T03:50:06.305Z,86.34
2018-01-27T03:51:08.164Z,86.63
2018-01-27T03:52:10.042Z,86.43
2018-01-27T03:53:11.917Z,86.43
2018-01-27T03:54:26.091Z,86.34
2018-01-27T03:55:27.951Z,86.34
2018-01-27T03:56:29.826Z,86.05
2018-01-27T03:57:31.706Z,86.34
2018-01-27T03:58:33.496Z,86.43
2018-01-27T03:59:35.287Z,86.34
2018-01-27T04:00:37.151Z,86.15
2018-01-27T04:01:39.024Z,86.24
2018-01-27T04:02:40.884Z,86.05
2018-01-27T04:03:55.027Z,86.24
2018-01-27T04:04:56.889Z,85.58
2018-01-27T04:05:58.746Z,85.77
2018-01-27T04:07:00.614Z,85.68
2018-01-27T04:08:02.401Z,85.68
2018-01-27T04:09:04.210Z,85.77
2018-01-27T04:10:06.071Z,85.68
2018-01-27T04:11:07.954Z,85.68
2018-01-27T04:12:09.828Z,85.68
2018-01-27T04:13:24.007Z,85.68
2018-01-27T04:14:25.882Z,85.77
2018-01-27T04:15:27.761Z,85.68
2018-01-27T04:16:29.645Z,85.96
2018-01-27T04:17:31.457Z,85.77
2018-01-27T04:18:33.266Z,85.58
2018-01-27T04:19:35.128Z,85.77
2018-01-27T04:20:37.008Z,85.58
2018-01-27T04:21:38.884Z,86.24
2018-01-27T04:22:53.027Z,85.96
2018-01-27T04:23:54.883Z,85.86
2018-01-27T04:24:56.739Z,85.68
2018-01-27T04:25:58.603Z,86.05
2018-01-27T04:27:00.395Z,85.86
2018-01-27T04:28:02.187Z,86.15
2018-01-27T04:29:04.046Z,86.43
2018-01-27T04:30:05.926Z,86.63
2018-01-27T04:31:07.805Z,86.53
2018-01-27T04:32:21.930Z,86.43
2018-01-27T04:33:23.790Z,86.43
2018-01-27T04:34:25.649Z,86.34
2018-01-27T04:35:27.530Z,86.24
2018-01-27T04:36:29.336Z,86.15
2018-01-27T04:37:31.131Z,86.15
2018-01-27T04:38:32.989Z,86.34
2018-01-27T04:39:34.852Z,86.43
2018-01-27T04:40:36.728Z,86.53
2018-01-27T04:41:50.858Z,86.43
2018-01-27T04:42:52.733Z,86.53
2018-01-27T04:43:54.592Z,86.63
2018-01-27T04:44:56.476Z,86.43
2018-01-27T04:45:58.267Z,86.53
2018-01-27T04:47:00.080Z,86.34
2018-01-27T04:48:01.965Z,86.24
2018-01-27T04:49:03.824Z,86.15
2018-01-27T04:50:05.682Z,86.43
2018-01-27T04:51:19.827Z,86.43
2018-01-27T04:52:21.701Z,86.43
2018-01-27T04:53:23.563Z,86.53
2018-01-27T04:54:25.441Z,86.34
2018-01-27T04:55:27.241Z,86.72
2018-01-27T04:56:29.052Z,86.63
2018-01-27T04:57:30.940Z,86.63
2018-01-27T04:58:32.814Z,86.63
2018-01-27T04:59:34.665Z,86.43
2018-01-27T05:00:48.796Z,86.24
2018-01-27T05:01:50.673Z,86.15
2018-01-27T05:02:52.549Z,86.24
2018-01-27T05:03:54.405Z,86.15
2018-01-27T05:04:56.202Z,86.72
2018-01-27T05:05:58.016Z,87.15
2018-01-27T05:06:59.870Z,87.82
2018-01-27T05:08:01.731Z,88.48
2018-01-27T05:09:03.615Z,88.86
2018-01-27T05:10:17.759Z,89.24
2018-01-27T05:11:19.630Z,89.05
2018-01-27T05:12:21.489Z,89.90
2018-01-27T05:13:23.353Z,89.90
2018-01-27T05:14:25.169Z,89.53
2018-01-27T05:15:26.978Z,89.24
2018-01-27T05:16:28.853Z,89.43
2018-01-27T05:17:30.721Z,88.76
2018-01-27T05:18:32.595Z,88.90
2018-01-27T05:19:46.712Z,88.76
2018-01-27T05:20:48.574Z,88.81
2018-01-27T05:21:50.433Z,89.62
2018-01-27T05:22:52.294Z,89.62
2018-01-27T05:23:54.086Z,88.81
2018-01-27T05:24:55.881Z,88.90
2018-01-27T05:25:57.741Z,88.62
2018-01-27T05:26:59.599Z,88.53
2018-01-27T05:28:01.467Z,88.43
2018-01-27T05:29:15.586Z,87.95
2018-01-27T05:30:17.443Z,88.15
2018-01-27T05:31:19.304Z,88.15
2018-01-27T05:32:21.167Z,87.48
2018-01-27T05:33:22.954Z,87.67
2018-01-27T05:34:24.754Z,87.57
2018-01-27T05:35:26.631Z,87.86
2018-01-27T05:36:28.484Z,87.76
2018-01-27T05:37:30.347Z,87.38
2018-01-27T05:38:44.494Z,87.67
2018-01-27T05:39:46.370Z,87.48
2018-01-27T05:40:48.247Z,87.19
2018-01-27T05:41:50.108Z,87.34
2018-01-27T05:42:51.901Z,87.52
2018-01-27T05:43:53.715Z,87.38
2018-01-27T05:44:55.595Z,87.38
2018-01-27T05:45:57.474Z,87.57
2018-01-27T05:46:59.356Z,87.38
2018-01-27T05:48:13.475Z,87.52
2018-01-27T05:49:15.337Z,86.76
2018-01-27T05:50:17.198Z,87.10
2018-01-27T05:51:19.074Z,86.95
2018-01-27T05:52:20.869Z,87.24
2018-01-27T05:53:22.661Z,87.34
2018-01-27T05:54:24.518Z,87.14
2018-01-27T05:55:26.378Z,86.57
2018-01-27T05:56:28.245Z,86.67
2018-01-27T05:57:42.388Z,86.76
2018-01-27T05:58:44.241Z,86.76
2018-01-27T05:59:46.104Z,86.76
2018-01-27T06:00:47.980Z,86.67
2018-01-27T06:01:49.776Z,86.86
2018-01-27T06:02:51.585Z,86.86
2018-01-27T06:03:53.451Z,86.95
2018-01-27T06:04:55.327Z,86.67
2018-01-27T06:05:57.205Z,86.86
2018-01-27T06:07:11.385Z,87.05
2018-01-27T06:08:13.261Z,86.76
2018-01-27T06:09:15.137Z,86.67
2018-01-27T06:10:17.000Z,86.76
2018-01-27T06:11:18.814Z,86.76
2018-01-27T06:12:20.623Z,86.67
2018-01-27T06:13:22.482Z,86.86
2018-01-27T06:14:24.363Z,86.67
2018-01-27T06:15:26.240Z,86.76
2018-01-27T06:16:40.411Z,86.67
2018-01-27T06:17:42.274Z,87.34
2018-01-27T06:18:44.135Z,87.34
2018-01-27T06:19:46.017Z,87.52
2018-01-27T06:20:47.825Z,87.14
2018-01-27T06:21:49.642Z,87.34
2018-01-27T06:22:51.516Z,87.34
2018-01-27T06:23:53.396Z,87.43
2018-01-27T06:24:55.255Z,87.34
2018-01-27T06:26:09.398Z,87.43
2018-01-27T06:27:11.272Z,87.43
2018-01-27T06:28:13.126Z,87.43
2018-01-27T06:29:14.988Z,87.43
2018-01-27T06:30:16.799Z,87.24
2018-01-27T06:31:18.656Z,87.24
2018-01-27T06:32:20.472Z,87.24
2018-01-27T06:33:22.351Z,87.24
2018-01-27T06:34:24.227Z,87.14
2018-01-27T06:35:38.352Z,87.34
2018-01-27T06:36:40.211Z,87.24
2018-01-27T06:37:42.073Z,87.43
2018-01-27T06:38:43.954Z,87.43
2018-01-27T06:39:45.768Z,87.43
2018-01-27T06:40:47.562Z,87.52
2018-01-27T06:41:49.438Z,87.43
2018-01-27T06:42:51.295Z,87.24
2018-01-27T06:43:53.161Z,87.34
2018-01-27T06:45:07.349Z,87.34
2018-01-27T06:46:09.210Z,87.52
2018-01-27T06:47:11.067Z,87.71
2018-01-27T06:48:12.927Z,87.71
2018-01-27T06:49:14.724Z,87.43
2018-01-27T06:50:16.531Z,87.71
2018-01-27T06:51:18.326Z,87.52
2018-01-27T06:52:20.121Z,87.34
2018-01-27T06:53:21.934Z,87.43
2018-01-27T06:54:36.128Z,87.34
2018-01-27T06:55:37.991Z,87.52
2018-01-27T06:56:39.849Z,87.52
2018-01-27T06:57:41.730Z,87.43
2018-01-27T06:58:43.522Z,87.34
2018-01-27T06:59:45.390Z,87.24
2018-01-27T07:00:47.203Z,87.43
2018-01-27T07:01:49.083Z,87.52
2018-01-27T07:02:50.948Z,87.52
2018-01-27T07:04:05.139Z,87.24
2018-01-27T07:05:07.039Z,87.43
2018-01-27T07:06:08.941Z,87.62
2018-01-27T07:07:10.824Z,87.52
2018-01-27T07:08:12.616Z,87.62
2018-01-27T07:09:14.412Z,87.43
2018-01-27T07:10:16.290Z,87.52
2018-01-27T07:11:18.167Z,87.34
2018-01-27T07:12:20.033Z,87.43
2018-01-27T07:13:34.183Z,87.43
2018-01-27T07:14:36.108Z,87.52
2018-01-27T07:15:38.000Z,87.52
2018-01-27T07:16:39.883Z,87.43
2018-01-27T07:17:41.676Z,87.62
2018-01-27T07:18:43.492Z,87.52
2018-01-27T07:19:45.349Z,87.62
2018-01-27T07:20:47.213Z,87.43
2018-01-27T07:21:49.081Z,87.62
2018-01-27T07:23:03.229Z,87.24
2018-01-27T07:24:05.110Z,87.24
2018-01-27T07:25:06.976Z,87.62
2018-01-27T07:26:08.861Z,87.62
2018-01-27T07:27:10.676Z,88.00
2018-01-27T07:28:12.474Z,87.24
2018-01-27T07:29:14.338Z,87.24
2018-01-27T07:30:16.198Z,87.62
2018-01-27T07:31:18.059Z,87.34
2018-01-27T07:32:32.207Z,87.47
2018-01-27T07:33:34.087Z,87.14
2018-01-27T07:34:35.953Z,87.19
2018-01-27T07:35:37.833Z,87.05
2018-01-27T07:36:39.631Z,87.19
2018-01-27T07:37:41.454Z,87.14
2018-01-27T07:38:43.270Z,87.38
2018-01-27T07:39:45.149Z,87.34
2018-01-27T07:40:47.023Z,87.62
2018-01-27T07:42:01.165Z,87.38
2018-01-27T07:43:03.035Z,87.09
2018-01-27T07:44:04.912Z,86.71
2018-01-27T07:45:06.784Z,86.61
2018-01-27T07:46:08.582Z,86.71
2018-01-27T07:47:10.444Z,86.43
2018-01-27T07:48:12.358Z,86.71
2018-01-27T07:49:14.224Z,86.57
2018-01-27T07:50:16.084Z,87.19
2018-01-27T07:51:30.283Z,87.09
2018-01-27T07:52:32.167Z,86.90
2018-01-27T07:53:34.012Z,86.43
2018-01-27T07:54:35.874Z,86.80
2018-01-27T07:55:37.671Z,86.71
2018-01-27T07:56:39.860Z,86.61
2018-01-27T07:57:41.690Z,86.80
2018-01-27T07:58:43.569Z,86.90
2018-01-27T07:59:45.433Z,86.33
2018-01-27T08:00:59.579Z,85.57
2018-01-27T08:02:01.445Z,85.38
2018-01-27T08:03:03.323Z,85.57
2018-01-27T08:04:05.187Z,85.66
2018-01-27T08:05:07.006Z,85.38
2018-01-27T08:06:08.821Z,85.10
2018-01-27T08:07:10.681Z,85.10
2018-01-27T08:08:12.547Z,85.38
2018-01-27T08:09:14.431Z,85.19
2018-01-27T08:10:28.562Z,85.38
2018-01-27T08:11:30.445Z,84.62
2018-01-27T08:12:32.326Z,84.91
2018-01-27T08:13:34.204Z,84.52
2018-01-27T08:14:35.999Z,84.62
2018-01-27T08:15:37.797Z,84.24
2018-01-27T08:16:39.655Z,84.05
2018-01-27T08:17:41.524Z,83.86
2018-01-27T08:18:43.407Z,84.14
2018-01-27T08:19:57.538Z,83.48
2018-01-27T08:20:59.416Z,83.76
2018-01-27T08:22:01.286Z,83.95
2018-01-27T08:23:03.161Z,83.67
2018-01-27T08:24:04.971Z,83.71
2018-01-27T08:25:06.792Z,83.67
2018-01-27T08:26:08.677Z,83.76
2018-01-27T08:27:10.558Z,83.67
2018-01-27T08:28:12.440Z,84.05
2018-01-27T08:29:26.631Z,83.90
2018-01-27T08:30:28.463Z,83.52
2018-01-27T08:31:30.344Z,83.52
2018-01-27T08:32:32.226Z,83.52
2018-01-27T08:33:34.046Z,83.90
2018-01-27T08:34:35.861Z,83.67
2018-01-27T08:35:37.722Z,84.09
2018-01-27T08:36:39.584Z,83.71
2018-01-27T08:37:41.448Z,83.62
2018-01-27T08:38:55.581Z,83.71
2018-01-27T08:39:57.441Z,83.71
2018-01-27T08:40:59.305Z,84.19
2018-01-27T08:42:01.240Z,83.62
2018-01-27T08:43:03.025Z,83.52
2018-01-27T08:44:04.845Z,83.33
2018-01-27T08:45:06.729Z,83.33
2018-01-27T08:46:08.611Z,83.42
2018-01-27T08:47:10.478Z,83.33
2018-01-27T08:48:24.623Z,82.86
2018-01-27T08:49:26.487Z,82.95
2018-01-27T08:50:28.345Z,83.04
2018-01-27T08:51:30.211Z,83.04
2018-01-27T08:52:32.025Z,83.14
2018-01-27T08:53:33.822Z,82.57
2018-01-27T08:54:35.685Z,82.76
2018-01-27T08:55:37.557Z,82.57
2018-01-27T08:56:39.440Z,82.48
2018-01-27T08:57:53.567Z,82.09
2018-01-27T08:58:55.453Z,82.09
2018-01-27T08:59:57.329Z,82.09
2018-01-27T09:00:59.192Z,82.76
2018-01-27T09:02:00.995Z,82.57
2018-01-27T09:03:02.812Z,82.28
2018-01-27T09:04:04.705Z,82.42
2018-01-27T09:05:06.583Z,81.95
2018-01-27T09:06:08.443Z,81.95
2018-01-27T09:07:22.590Z,82.32
2018-01-27T09:08:24.456Z,81.95
2018-01-27T09:09:26.329Z,81.66
2018-01-27T09:10:28.204Z,82.04
2018-01-27T09:11:30.052Z,82.23
2018-01-27T09:12:31.873Z,82.14
2018-01-27T09:13:33.742Z,82.14
2018-01-27T09:14:35.626Z,82.14
2018-01-27T09:15:37.514Z,82.23
2018-01-27T09:16:51.672Z,82.23
2018-01-27T09:17:53.526Z,82.23
2018-01-27T09:18:55.386Z,82.14
2018-01-27T09:19:57.270Z,82.42
2018-01-27T09:20:59.087Z,81.85
2018-01-27T09:22:00.894Z,81.76
2018-01-27T09:23:02.778Z,81.56
2018-01-27T09:24:04.655Z,81.41
2018-01-27T09:25:06.523Z,81.32
2018-01-27T09:26:20.673Z,81.23
2018-01-27T09:27:22.540Z,81.32
2018-01-27T09:28:24.424Z,80.55
2018-01-27T09:29:26.319Z,80.46
2018-01-27T09:30:28.135Z,80.36
2018-01-27T09:31:29.947Z,80.08
2018-01-27T09:32:31.809Z,80.08
2018-01-27T09:33:33.737Z,80.18
2018-01-27T09:34:35.606Z,80.18
2018-01-27T09:35:49.739Z,80.27
2018-01-27T09:36:51.598Z,80.27
2018-01-27T09:37:53.466Z,80.36
2018-01-27T09:38:55.348Z,80.55
2018-01-27T09:39:57.150Z,80.36
2018-01-27T09:40:58.950Z,80.18
2018-01-27T09:42:00.811Z,80.46
2018-01-27T09:43:02.682Z,80.75
2018-01-27T09:44:04.569Z,80.84
2018-01-27T09:45:18.742Z,81.13
2018-01-27T09:46:20.626Z,80.55
2018-01-27T09:47:22.485Z,80.65
2018-01-27T09:48:24.357Z,80.75
2018-01-27T09:49:26.400Z,81.03
2018-01-27T09:50:28.184Z,81.70
2018-01-27T09:51:30.042Z,81.23
2018-01-27T09:52:31.908Z,81.41
2018-01-27T09:53:33.773Z,81.23
2018-01-27T09:54:47.892Z,81.23
2018-01-27T09:55:49.800Z,81.23
2018-01-27T09:56:51.661Z,81.32
2018-01-27T09:57:53.562Z,81.23
2018-01-27T09:58:55.383Z,81.32
2018-01-27T09:59:57.184Z,81.13
2018-01-27T10:00:59.066Z,81.41
2018-01-27T10:02:00.936Z,81.41
2018-01-27T10:03:02.844Z,81.41
2018-01-27T10:04:17.023Z,81.03
2018-01-27T10:05:18.884Z,81.32
2018-01-27T10:06:20.767Z,81.23
2018-01-27T10:07:22.739Z,80.94
2018-01-27T10:08:24.568Z,81.32
2018-01-27T10:09:26.369Z,81.32
2018-01-27T10:10:28.250Z,81.32
2018-01-27T10:11:30.114Z,81.41
2018-01-27T10:12:32.024Z,81.60
2018-01-27T10:13:46.176Z,80.94
2018-01-27T10:14:48.110Z,81.18
2018-01-27T10:15:49.985Z,80.99
2018-01-27T10:16:51.866Z,81.37
2018-01-27T10:17:53.749Z,81.28
2018-01-27T10:18:55.571Z,81.28
2018-01-27T10:19:57.492Z,81.18
2018-01-27T10:20:59.389Z,81.18
2018-01-27T10:22:01.295Z,81.37
2018-01-27T10:23:15.717Z,81.18
2018-01-27T10:24:17.586Z,81.18
2018-01-27T10:25:19.472Z,81.37
2018-01-27T10:26:21.344Z,81.28
2018-01-27T10:27:23.151Z,81.18
2018-01-27T10:28:24.977Z,81.28
2018-01-27T10:29:26.884Z,81.18
2018-01-27T10:30:28.701Z,80.99
2018-01-27T10:31:30.575Z,81.09
2018-01-27T10:32:44.722Z,81.18
2018-01-27T10:33:46.634Z,81.37
2018-01-27T10:34:48.513Z,80.90
2018-01-27T10:35:50.375Z,80.80
2018-01-27T10:36:52.213Z,80.71
2018-01-27T10:37:54.065Z,80.80
2018-01-27T10:38:55.920Z,80.90
2018-01-27T10:39:57.787Z,81.37
2018-01-27T10:40:59.700Z,81.28
2018-01-27T10:42:13.848Z,81.66
2018-01-27T10:43:15.731Z,81.76
2018-01-27T10:44:17.610Z,82.42
2018-01-27T10:45:19.486Z,82.23
2018-01-27T10:46:21.334Z,82.23
2018-01-27T10:47:23.152Z,82.23
2018-01-27T10:48:25.031Z,82.14
2018-01-27T10:49:26.899Z,81.95
2018-01-27T10:50:28.781Z,82.23
2018-01-27T10:51:42.929Z,82.23
2018-01-27T10:52:44.826Z,82.23
2018-01-27T10:53:46.698Z,82.23
2018-01-27T10:54:48.655Z,82.32
2018-01-27T10:55:50.689Z,82.42
2018-01-27T10:56:52.482Z,82.32
2018-01-27T10:57:54.368Z,82.14
2018-01-27T10:58:56.248Z,82.14
2018-01-27T10:59:58.107Z,82.42
2018-01-27T11:01:12.293Z,82.23
2018-01-27T11:02:14.176Z,82.32
2018-01-27T11:03:16.062Z,82.23
2018-01-27T11:04:17.945Z,82.61
2018-01-27T11:05:19.738Z,82.61
2018-01-27T11:06:21.538Z,83.28
2018-01-27T11:07:23.813Z,82.70
2018-01-27T11:08:25.633Z,82.70
2018-01-27T11:09:27.504Z,82.90
2018-01-27T11:10:41.626Z,83.09
2018-01-27T11:11:43.487Z,83.09
2018-01-27T11:12:45.355Z,83.18
2018-01-27T11:13:47.330Z,82.80
2018-01-27T11:14:49.101Z,82.51
2018-01-27T11:15:50.904Z,82.51
2018-01-27T11:16:52.783Z,82.61
2018-01-27T11:17:54.649Z,82.42
2018-01-27T11:18:56.512Z,81.90
2018-01-27T11:20:10.684Z,82.42
2018-01-27T11:21:12.840Z,82.23
2018-01-27T11:22:14.705Z,82.14
2018-01-27T11:23:16.576Z,82.61
2018-01-27T11:24:18.400Z,82.80
2018-01-27T11:25:20.245Z,82.90
2018-01-27T11:26:22.115Z,83.09
2018-01-27T11:27:24.046Z,83.09
2018-01-27T11:28:25.880Z,82.70
2018-01-27T11:29:40.014Z,82.51
2018-01-27T11:30:41.890Z,82.32
2018-01-27T11:31:43.756Z,82.42
2018-01-27T11:32:45.638Z,82.61
2018-01-27T11:33:47.456Z,82.80
2018-01-27T11:34:49.285Z,82.80
2018-01-27T11:35:51.164Z,83.28
2018-01-27T11:36:53.027Z,82.70
2018-01-27T11:37:54.912Z,82.61
2018-01-27T11:39:09.066Z,82.61
2018-01-27T11:40:10.973Z,82.61
2018-01-27T11:41:12.826Z,82.99
2018-01-27T11:42:14.689Z,83.47
2018-01-27T11:43:16.510Z,82.99
2018-01-27T11:44:18.322Z,82.99
2018-01-27T11:45:20.191Z,82.61
2018-01-27T11:46:22.075Z,82.32
2018-01-27T11:47:23.959Z,82.14
2018-01-27T11:48:38.110Z,82.23
2018-01-27T11:49:39.994Z,82.42
2018-01-27T11:50:41.880Z,82.04
2018-01-27T11:51:43.771Z,82.42
2018-01-27T11:52:45.602Z,82.14
2018-01-27T11:53:47.421Z,82.61
2018-01-27T11:54:49.303Z,81.76
2018-01-27T11:55:51.260Z,81.56
2018-01-27T11:56:53.161Z,82.32
2018-01-27T11:58:07.415Z,81.76
2018-01-27T11:59:09.279Z,81.76
2018-01-27T12:00:11.228Z,81.85
2018-01-27T12:01:13.204Z,82.14
2018-01-27T12:02:15.043Z,81.85
2018-01-27T12:03:16.876Z,82.61
2018-01-27T12:04:18.758Z,81.95
2018-01-27T12:05:20.630Z,82.42
2018-01-27T12:06:22.498Z,82.32
2018-01-27T12:07:38.102Z,82.04
2018-01-27T12:08:39.997Z,82.23
2018-01-27T12:09:41.865Z,82.23
2018-01-27T12:10:43.806Z,81.76
2018-01-27T12:11:45.580Z,82.23
2018-01-27T12:12:47.374Z,81.76
2018-01-27T12:13:49.237Z,82.42
2018-01-27T12:14:51.099Z,82.42
2018-01-27T12:15:52.964Z,82.04
2018-01-27T12:17:07.136Z,82.51
2018-01-27T12:18:09.023Z,82.61
2018-01-27T12:19:10.897Z,82.32
2018-01-27T12:20:12.804Z,82.23
2018-01-27T12:21:14.598Z,82.32
2018-01-27T12:22:16.416Z,82.14
2018-01-27T12:23:18.305Z,82.51
2018-01-27T12:24:20.165Z,83.28
2018-01-27T12:25:22.045Z,83.09
2018-01-27T12:26:36.183Z,83.56
2018-01-27T12:27:38.058Z,83.28
2018-01-27T12:28:39.938Z,83.94
2018-01-27T12:29:41.833Z,84.23
2018-01-27T12:30:43.656Z,83.85
2018-01-27T12:31:45.490Z,84.33
2018-01-27T12:32:47.364Z,84.13
2018-01-27T12:33:49.240Z,84.66
2018-01-27T12:34:51.113Z,84.23
2018-01-27T12:36:05.262Z,84.95
2018-01-27T12:37:07.145Z,84.85
2018-01-27T12:38:09.002Z,85.33
2018-01-27T12:39:10.875Z,85.33
2018-01-27T12:40:12.700Z,85.18
2018-01-27T12:41:14.519Z,85.37
2018-01-27T12:42:16.401Z,84.89
2018-01-27T12:43:18.269Z,84.76
2018-01-27T12:44:20.156Z,85.24
2018-01-27T12:45:34.308Z,85.14
2018-01-27T12:46:36.235Z,85.33
2018-01-27T12:47:38.125Z,85.52
2018-01-27T12:48:40.000Z,85.42
2018-01-27T12:49:41.833Z,86.18
2018-01-27T12:50:43.649Z,85.99
2018-01-27T12:51:45.505Z,85.99
2018-01-27T12:52:47.369Z,86.18
2018-01-27T12:53:49.234Z,85.99
2018-01-27T12:55:03.385Z,85.33
2018-01-27T12:56:05.258Z,85.66
2018-01-27T12:57:07.136Z,85.66
2018-01-27T12:58:09.003Z,85.47
2018-01-27T12:59:10.818Z,85.75
2018-01-27T13:00:12.608Z,85.85
2018-01-27T13:01:14.492Z,85.47
2018-01-27T13:02:16.359Z,85.75
2018-01-27T13:03:18.245Z,85.85
2018-01-27T13:04:32.375Z,85.18
2018-01-27T13:05:34.303Z,84.99
2018-01-27T13:06:36.180Z,85.37
2018-01-27T13:07:38.047Z,85.47
2018-01-27T13:08:39.878Z,85.18
2018-01-27T13:09:41.734Z,85.18
2018-01-27T13:10:43.628Z,85.37
2018-01-27T13:11:45.497Z,85.18
2018-01-27T13:12:47.384Z,85.47
2018-01-27T13:14:01.533Z,85.08
2018-01-27T13:15:03.417Z,85.28
2018-01-27T13:16:05.305Z,85.18
2018-01-27T13:17:07.166Z,85.28
2018-01-27T13:18:08.980Z,85.47
2018-01-27T13:19:10.793Z,84.70
2018-01-27T13:20:12.649Z,84.99
2018-01-27T13:21:14.512Z,85.28
2018-01-27T13:22:16.389Z,85.28
2018-01-27T13:23:30.546Z,85.18
2018-01-27T13:24:32.428Z,84.99
2018-01-27T13:25:34.286Z,85.18
2018-01-27T13:26:36.148Z,85.37
2018-01-27T13:27:37.962Z,85.47
2018-01-27T13:28:39.785Z,85.37
2018-01-27T13:29:41.680Z,84.80
2018-01-27T13:30:43.544Z,84.80
2018-01-27T13:31:45.430Z,85.47
2018-01-27T13:32:59.568Z,85.28
2018-01-27T13:34:01.425Z,85.18